WetterOnline ( https://www.wetteronline.de )

Wetter aktuell Isny

Aktuelles Wetter: Leutkirch-Herlazhofen (671m)

6-stündlich | Neueste Meldungen
Ortszeit Temperatur Wetter
Sa, 31.10. 13:00 14.3° C leicht bewölkt
Sa, 31.10. 7:00 0.2° C Nebel
Sa, 31.10. 1:00 3.5° C Nebel
Fr, 30.10. 19:00 9.8° C wolkig
Fr, 30.10. 13:00 12.2° C bedeckt
Fr, 30.10. 7:00 9.5° C bedeckt
Fr, 30.10. 1:00 8.9° C Sprühregen
Do, 29.10. 19:00 8.6° C leichter Regen
Ortszeit Temperatur Wetter
Sa, 31.10. 18:00 7.0° C fast wolkenlos
Sa, 31.10. 17:50 7.0° C fast wolkenlos
Sa, 31.10. 17:40 8.1° C leicht bewölkt
Sa, 31.10. 17:30 9.2° C wolkig
Sa, 31.10. 17:20 9.2° C wolkig
Sa, 31.10. 17:10 8.8° C wolkig
Sa, 31.10. 17:00 11.0° C leicht bewölkt
Sa, 31.10. 16:30 12.6° C wolkenlos
Sa, 31.10. 16:00 14.0° C wolkenlos
Sa, 31.10. 15:30 14.7° C fast wolkenlos
Sa, 31.10. 15:00 14.7° C wolkenlos
Ortszeit Relative Feuchte Sichtweite
Sa, 31.10. 13:00 59% 55 km
Sa, 31.10. 7:00 99% 0.2 km
Sa, 31.10. 1:00 100% 0.8 km
Fr, 30.10. 19:00 87% 55 km
Fr, 30.10. 13:00 72% 65 km
Fr, 30.10. 7:00 84% >70 km
Fr, 30.10. 1:00 92% 17 km
Do, 29.10. 19:00 92% 15 km
Ortszeit Relative Feuchte Sichtweite
Sa, 31.10. 18:00 88% 26 km
Sa, 31.10. 17:50 88% -
Sa, 31.10. 17:40 87% -
Sa, 31.10. 17:30 83% 2.0 km
Sa, 31.10. 17:20 83% -
Sa, 31.10. 17:10 84% -
Sa, 31.10. 17:00 76% 40 km
Sa, 31.10. 16:30 66% 55 km
Sa, 31.10. 16:00 62% 45 km
Sa, 31.10. 15:30 61% 50 km
Sa, 31.10. 15:00 59% 50 km
Ortszeit Niederschlagsmenge Niederschlagsart
Sa, 31.10. 13:00 0.0 l/m2 in 6 Std. -
Sa, 31.10. 7:00 0.0 l/m2 in 12 Std. -
Sa, 31.10. 1:00 0.0 l/m2 in 6 Std. -
Fr, 30.10. 19:00 0.0 l/m2 in 12 Std. -
Fr, 30.10. 13:00 0.0 l/m2 in 6 Std. -
Fr, 30.10. 7:00 6 l/m2 in 12 Std. Regen
Fr, 30.10. 1:00 5 l/m2 in 6 Std. Regen
Do, 29.10. 19:00 5 l/m2 in 12 Std. Regen
Ortszeit Niederschlagsmenge Niederschlagsart
Sa, 31.10. 18:00 0.0 l/m2 in 1 Std. -
Sa, 31.10. 17:50 keine Meldung -
Sa, 31.10. 17:40 keine Meldung -
Sa, 31.10. 17:30 0.0 l/m2 in 1 Std. -
Sa, 31.10. 17:20 keine Meldung -
Sa, 31.10. 17:10 keine Meldung -
Sa, 31.10. 17:00 0.0 l/m2 in 1 Std. -
Sa, 31.10. 16:30 0.0 l/m2 in 1 Std. -
Sa, 31.10. 16:00 0.0 l/m2 in 1 Std. -
Sa, 31.10. 15:30 0.0 l/m2 in 1 Std. -
Sa, 31.10. 15:00 0.0 l/m2 in 1 Std. -
Ortszeit Stärke Spitze Richtung
km/h Bft. km/h Grad Sektor
Sa, 31.10. 13:00 13 3 19 250° W
Sa, 31.10. 7:00 0 0 7 - -
Sa, 31.10. 1:00 0 0 14 - -
Fr, 30.10. 19:00 9 2 11 210° SW
Fr, 30.10. 13:00 - - 37 - -
Fr, 30.10. 7:00 14 3 36 230° SW
Fr, 30.10. 1:00 19 3 31 210° SW
Do, 29.10. 19:00 17 3 39 230° SW
Ortszeit Stärke Spitze Richtung
km/h Bft. km/h Grad Sektor
Sa, 31.10. 18:00 2 1 11 190° S
Sa, 31.10. 17:50 2 1 - 190° S
Sa, 31.10. 17:40 4 1 - 220° SW
Sa, 31.10. 17:30 7 2 11 150° SO
Sa, 31.10. 17:20 7 2 - 150° SO
Sa, 31.10. 17:10 4 1 - 180° S
Sa, 31.10. 17:00 6 1 9 250° W
Sa, 31.10. 16:30 6 1 9 230° SW
Sa, 31.10. 16:00 7 2 11 200° S
Sa, 31.10. 15:30 7 2 11 210° SW
Sa, 31.10. 15:00 7 2 18 240° SW
Ortszeit Untergrenze Bedeckung Gattung
total tief tief mittel hoch
Sa, 31.10. 13:00 8700 m 6/8 0/8 - - -
Sa, 31.10. 7:00 <30 m 7/8 0/8 - - -
Sa, 31.10. 1:00 - 0/8 0/8 - - -
Fr, 30.10. 19:00 630 m 5/8 5/8 - - -
Fr, 30.10. 13:00 720 m 8/8 8/8 - - -
Fr, 30.10. 7:00 600 m 8/8 8/8 - - -
Fr, 30.10. 1:00 1500 m 8/8 8/8 - - -
Do, 29.10. 19:00 1170 m 7/8 7/8 - - -
Ortszeit Bedeckungsgrad in Achtel und Wolkenuntergrenze
Sa, 31.10. 18:00 1(6900m)
Sa, 31.10. 17:50 1(6900m)
Sa, 31.10. 17:40 2(6900m)
Sa, 31.10. 17:30 4(6900m) 5(7500m)
Sa, 31.10. 17:20 4(6900m) 5(7500m)
Sa, 31.10. 17:10 5(6900m) 7(7500m)
Sa, 31.10. 17:00 3(6900m)
Sa, 31.10. 16:30 keine Wolken
Sa, 31.10. 16:00 keine Wolken
Sa, 31.10. 15:30 1(8100m)
Sa, 31.10. 15:00 keine Wolken
Ortszeit Luftdruck NN (hPa) Tendenz (hPa in 3 Std.)
Sa, 31.10. 13:00 1023 - 1,6
Sa, 31.10. 7:00 1029 - 1,2
Sa, 31.10. 1:00 1029 - 0,4
Fr, 30.10. 19:00 1027 + 0,8
Fr, 30.10. 13:00 1025 - 0,2
Fr, 30.10. 7:00 1025 + 0,4
Fr, 30.10. 1:00 1025 + 0,2
Do, 29.10. 19:00 1025 + 1,7
Ortszeit Luftdruck NN (hPa) Tendenz (hPa in 3 Std.)
Sa, 31.10. 18:00 1023 - 0,2
Sa, 31.10. 17:50 1023 keine Meldung
Sa, 31.10. 17:40 1023 keine Meldung
Sa, 31.10. 17:30 1022 - 0,8
Sa, 31.10. 17:20 1022 keine Meldung
Sa, 31.10. 17:10 1022 keine Meldung
Sa, 31.10. 17:00 1022 - 1,1
Sa, 31.10. 16:30 1021 - 1,5
Sa, 31.10. 16:00 1021 - 1,7
Sa, 31.10. 15:30 1021 - 1,5
Sa, 31.10. 15:00 1021 - 1,5
Ortszeit Schneehöhe (cm)
Sa, 31.10. 13:00 0
Sa, 31.10. 7:00 0
Sa, 31.10. 1:00 0
Fr, 30.10. 19:00 0
Fr, 30.10. 13:00 0
Fr, 30.10. 7:00 0
Fr, 30.10. 1:00 0
Do, 29.10. 19:00 0
Ortszeit Schneehöhe (cm)
Sa, 31.10. 18:00 0
Sa, 31.10. 17:50 0
Sa, 31.10. 17:40 0
Sa, 31.10. 17:30 0
Sa, 31.10. 17:20 0
Sa, 31.10. 17:10 0
Sa, 31.10. 17:00 0
Sa, 31.10. 16:30 0
Sa, 31.10. 16:00 0
Sa, 31.10. 15:30 0
Sa, 31.10. 15:00 0
Link zu dieser Seite / Seite empfehlen

Das Wetter in ...